createdAt,value
2019-04-28T00:01:36.291Z,101904.67
2019-04-28T00:04:06.602Z,101900.80
2019-04-28T00:06:36.612Z,101901.87
2019-04-28T00:09:07.946Z,101901.02
2019-04-28T00:11:38.517Z,101897.30
2019-04-28T00:14:08.624Z,101909.50
2019-04-28T00:16:41.145Z,101907.20
2019-04-28T00:19:11.437Z,101916.76
2019-04-28T00:21:51.614Z,101911.08
2019-04-28T00:24:33.085Z,101905.28
2019-04-28T00:27:04.945Z,101905.49
2019-04-28T00:29:40.264Z,101912.50
2019-04-28T00:32:06.875Z,101906.97
2019-04-28T00:34:36.925Z,101916.03
2019-04-28T00:37:22.813Z,101914.58
2019-04-28T00:39:53.022Z,101915.20
2019-04-28T00:42:23.075Z,101917.38
2019-04-28T00:44:54.920Z,101916.28
2019-04-28T00:47:25.815Z,101927.52
2019-04-28T00:49:55.859Z,101925.02
2019-04-28T00:52:25.979Z,101917.75
2019-04-28T00:54:56.023Z,101913.67
2019-04-28T00:57:26.104Z,101919.95
2019-04-28T00:59:58.759Z,101904.72
2019-04-28T01:02:45.194Z,101910.30
2019-04-28T01:05:15.896Z,101908.02
2019-04-28T01:07:46.005Z,101914.66
2019-04-28T01:10:16.072Z,101912.00
2019-04-28T01:12:46.717Z,101915.62
2019-04-28T01:15:25.848Z,101917.05
2019-04-28T01:18:02.354Z,101918.64
2019-04-28T01:20:32.478Z,101914.77
2019-04-28T01:23:02.565Z,101921.06
2019-04-28T01:25:32.594Z,101918.77
2019-04-28T01:28:02.719Z,101917.66
2019-04-28T01:30:50.385Z,101926.11
2019-04-28T01:33:35.368Z,101931.21
2019-04-28T01:36:05.445Z,101940.03
2019-04-28T01:38:36.308Z,101929.86
2019-04-28T01:41:06.448Z,101937.23
2019-04-28T01:43:36.522Z,101936.64
2019-04-28T01:46:06.669Z,101941.36
2019-04-28T01:48:36.800Z,101927.20
2019-04-28T01:51:06.858Z,101932.52
2019-04-28T01:53:36.906Z,101944.73
2019-04-28T01:56:07.043Z,101939.79
2019-04-28T01:58:37.077Z,101942.08
2019-04-28T02:01:10.609Z,101943.64
2019-04-28T02:03:40.770Z,101948.25
2019-04-28T02:06:10.853Z,101957.18
2019-04-28T02:08:40.894Z,101956.45
2019-04-28T02:11:10.962Z,101953.42
2019-04-28T02:13:41.022Z,101953.06
2019-04-28T02:16:11.090Z,101954.75
2019-04-28T02:18:43.081Z,101955.13
2019-04-28T02:21:39.545Z,101968.77
2019-04-28T02:24:27.202Z,101966.84
2019-04-28T02:26:57.382Z,101957.55
2019-04-28T02:29:27.441Z,101968.77
2019-04-28T02:31:57.685Z,101975.15
2019-04-28T02:34:31.093Z,101984.82
2019-04-28T02:37:02.000Z,101973.34
2019-04-28T02:39:33.275Z,101975.41
2019-04-28T02:42:03.496Z,101974.94
2019-04-28T02:44:35.161Z,101973.35
2019-04-28T02:47:06.423Z,101976.97
2019-04-28T02:50:00.946Z,101979.52
2019-04-28T02:52:47.799Z,101981.69
2019-04-28T02:55:17.947Z,101984.94
2019-04-28T02:57:48.028Z,101995.08
2019-04-28T03:00:18.061Z,101988.44
2019-04-28T03:02:48.114Z,101981.91
2019-04-28T03:05:21.103Z,101978.92
2019-04-28T03:07:51.565Z,101983.86
2019-04-28T03:10:21.915Z,101984.09
2019-04-28T03:12:52.201Z,101987.48
2019-04-28T03:15:22.347Z,101988.44
2019-04-28T03:21:27.268Z,101985.90
2019-04-28T03:23:57.297Z,101989.29
2019-04-28T03:26:41.357Z,101977.59
2019-04-28T03:29:22.482Z,101973.94
2019-04-28T03:32:29.332Z,101966.71
2019-04-28T03:34:53.030Z,101959.59
2019-04-28T03:37:23.472Z,101964.16
2019-04-28T03:39:51.848Z,101959.11
2019-04-28T03:42:22.062Z,101958.99
2019-04-28T03:44:52.560Z,101951.87
2019-04-28T03:47:22.604Z,101949.91
2019-04-28T03:49:52.631Z,101953.56
2019-04-28T03:52:22.691Z,101955.00
2019-04-28T03:54:52.728Z,101968.28
2019-04-28T03:57:22.788Z,101970.20
2019-04-28T03:59:52.830Z,101971.30
2019-04-28T04:02:23.716Z,101970.82
2019-04-28T04:04:53.991Z,101967.80
2019-04-28T04:07:24.059Z,101976.24
2019-04-28T04:10:04.100Z,101970.34
2019-04-28T04:12:50.679Z,101973.70
2019-04-28T04:15:49.191Z,101974.06
2019-04-28T04:18:24.448Z,101969.48
2019-04-28T04:20:54.494Z,101978.31
2019-04-28T04:23:24.605Z,101971.05
2019-04-28T04:25:54.644Z,101970.56
2019-04-28T04:28:24.714Z,101975.16
2019-04-28T04:30:54.755Z,101979.15
2019-04-28T04:33:24.828Z,101976.23
2019-04-28T04:35:54.899Z,101982.39
2019-04-28T04:38:24.968Z,101976.73
2019-04-28T04:40:55.005Z,101982.75
2019-04-28T04:43:25.054Z,101978.53
2019-04-28T04:46:14.568Z,101974.31
2019-04-28T04:48:44.896Z,101978.05
2019-04-28T04:51:14.952Z,101982.88
2019-04-28T04:53:44.996Z,101990.38
2019-04-28T04:56:16.006Z,101989.27
2019-04-28T04:58:47.130Z,101989.89
2019-04-28T05:01:36.106Z,101996.91
2019-04-28T05:04:29.609Z,101992.77
2019-04-28T05:06:59.786Z,101997.00
2019-04-28T05:09:31.189Z,101990.13
2019-04-28T05:12:01.256Z,101989.13
2019-04-28T05:14:31.316Z,101991.09
2019-04-28T05:17:01.343Z,101994.12
2019-04-28T05:19:31.402Z,102003.91
2019-04-28T05:22:01.614Z,102004.59
2019-04-28T05:24:40.593Z,102011.61
2019-04-28T05:27:10.644Z,102010.16
2019-04-28T05:29:40.678Z,102018.03
2019-04-28T05:32:10.923Z,102022.23
2019-04-28T05:34:46.565Z,102022.02
2019-04-28T05:37:12.752Z,102025.73
2019-04-28T05:39:42.789Z,102029.87
2019-04-28T05:42:12.871Z,102014.03
2019-04-28T05:44:42.901Z,102029.49
2019-04-28T05:47:12.959Z,102025.75
2019-04-28T05:50:07.125Z,102032.41
2019-04-28T05:52:56.110Z,102032.02
2019-04-28T05:55:32.418Z,102033.97
2019-04-28T05:58:19.933Z,102029.83
2019-04-28T06:01:07.929Z,102029.14
2019-04-28T06:03:40.606Z,102033.70
2019-04-28T06:06:10.667Z,102042.64
2019-04-28T06:08:46.496Z,102037.85
2019-04-28T06:11:33.188Z,102033.48
2019-04-28T06:14:03.251Z,102042.67
2019-04-28T06:16:33.289Z,102052.70
2019-04-28T06:19:03.354Z,102055.14
2019-04-28T06:21:33.384Z,102053.08
2019-04-28T06:24:03.449Z,102054.02
2019-04-28T06:26:33.477Z,102053.55
2019-04-28T06:29:03.622Z,102049.19
2019-04-28T06:31:33.641Z,102053.91
2019-04-28T06:34:03.750Z,102055.01
2019-04-28T06:36:33.787Z,102048.69
2019-04-28T06:39:06.234Z,102059.95
2019-04-28T06:41:36.389Z,102061.86
2019-04-28T06:44:06.471Z,102069.23
2019-04-28T06:46:36.526Z,102073.34
2019-04-28T06:49:06.599Z,102075.17
2019-04-28T06:51:36.634Z,102082.03
2019-04-28T06:54:06.708Z,102077.21
2019-04-28T06:56:36.754Z,102075.88
2019-04-28T06:59:06.815Z,102072.95
2019-04-28T07:01:36.865Z,102074.41
2019-04-28T07:04:06.952Z,102084.42
2019-04-28T07:06:36.994Z,102087.42
2019-04-28T07:09:07.836Z,102080.05
2019-04-28T07:11:37.913Z,102079.45
2019-04-28T07:14:07.958Z,102090.46
2019-04-28T07:16:39.638Z,102100.59
2019-04-28T07:19:09.671Z,102097.11
2019-04-28T07:22:00.577Z,102096.59
2019-04-28T07:24:30.687Z,102094.91
2019-04-28T07:27:00.734Z,102101.20
2019-04-28T07:29:30.781Z,102101.66
2019-04-28T07:32:00.986Z,102110.38
2019-04-28T07:34:31.038Z,102112.07
2019-04-28T07:37:01.110Z,102115.19
2019-04-28T07:39:31.253Z,102124.27
2019-04-28T07:42:01.297Z,102114.10
2019-04-28T07:44:31.343Z,102118.95
2019-04-28T07:47:01.397Z,102107.78
2019-04-28T07:49:32.495Z,102113.23
2019-04-28T07:52:21.502Z,102114.44
2019-04-28T07:54:51.594Z,102113.84
2019-04-28T07:57:24.012Z,102113.33
2019-04-28T07:59:53.335Z,102119.25
2019-04-28T08:02:23.466Z,102126.64
2019-04-28T08:04:53.493Z,102128.09
2019-04-28T08:07:23.562Z,102128.48
2019-04-28T08:09:53.595Z,102124.48
2019-04-28T08:12:23.660Z,102131.02
2019-04-28T08:14:53.706Z,102132.59
2019-04-28T08:17:23.762Z,102133.78
2019-04-28T08:19:53.817Z,102141.65
2019-04-28T08:22:23.867Z,102131.33
2019-04-28T08:24:53.910Z,102132.11
2019-04-28T08:27:23.977Z,102136.22
2019-04-28T08:29:58.804Z,102138.62
2019-04-28T08:32:34.660Z,102138.86
2019-04-28T08:35:04.840Z,102137.98
2019-04-28T08:37:34.927Z,102143.41
2019-04-28T08:40:07.302Z,102147.73
2019-04-28T08:42:37.355Z,102149.43
2019-04-28T08:45:07.488Z,102153.76
2019-04-28T08:47:37.541Z,102157.15
2019-04-28T08:50:07.579Z,102150.61
2019-04-28T08:52:37.648Z,102156.09
2019-04-28T08:55:07.724Z,102156.09
2019-04-28T08:57:38.805Z,102158.81
2019-04-28T09:00:10.327Z,102158.81
2019-04-28T09:02:40.453Z,102155.30
2019-04-28T09:05:10.502Z,102155.78
2019-04-28T09:07:40.545Z,102156.63
2019-04-28T09:10:10.998Z,102156.63
2019-04-28T09:12:41.074Z,102154.00
2019-04-28T09:15:11.118Z,102166.44
2019-04-28T09:17:41.176Z,102173.10
2019-04-28T09:20:11.308Z,102164.95
2019-04-28T09:22:41.343Z,102166.97
2019-04-28T09:25:11.400Z,102166.60
2019-04-28T09:27:41.449Z,102161.88
2019-04-28T09:30:11.479Z,102169.39
2019-04-28T09:32:41.543Z,102173.11
2019-04-28T09:35:12.568Z,102179.20
2019-04-28T09:37:42.638Z,102178.31
2019-04-28T09:40:14.611Z,102178.31
2019-04-28T09:43:09.394Z,102184.20
2019-04-28T09:45:57.034Z,102195.32
2019-04-28T09:48:27.078Z,102192.05
2019-04-28T09:50:57.111Z,102193.38
2019-04-28T09:53:27.143Z,102193.47
2019-04-28T09:55:57.193Z,102196.66
2019-04-28T09:58:27.235Z,102195.36
2019-04-28T10:00:57.264Z,102190.03
2019-04-28T10:03:27.318Z,102207.11
2019-04-28T10:05:57.454Z,102193.63
2019-04-28T10:08:27.524Z,102197.34
2019-04-28T10:10:57.555Z,102197.09
2019-04-28T10:13:27.579Z,102202.02
2019-04-28T10:15:57.640Z,102197.90
2019-04-28T10:18:27.694Z,102203.14
2019-04-28T10:20:57.751Z,102203.50
2019-04-28T10:23:27.804Z,102203.61
2019-04-28T10:25:57.828Z,102208.05
2019-04-28T10:28:27.877Z,102206.47
2019-04-28T10:30:57.889Z,102212.50
2019-04-28T10:33:27.973Z,102207.62
2019-04-28T10:35:58.072Z,102209.95
2019-04-28T10:38:28.213Z,102213.17
2019-04-28T10:41:08.875Z,102207.48
2019-04-28T10:43:39.473Z,102201.12
2019-04-28T10:46:10.565Z,102207.74
2019-04-28T10:48:40.607Z,102201.64
2019-04-28T10:51:10.641Z,102206.80
2019-04-28T10:53:40.703Z,102199.63
2019-04-28T10:56:11.628Z,102191.64
2019-04-28T10:58:44.362Z,102201.30
2019-04-28T11:01:14.449Z,102203.81
2019-04-28T11:03:46.150Z,102206.48
2019-04-28T11:06:16.332Z,102192.45
2019-04-28T11:08:56.462Z,102207.92
2019-04-28T11:11:27.993Z,102205.31
2019-04-28T11:13:58.149Z,102202.29
2019-04-28T11:16:31.897Z,102201.59
2019-04-28T11:19:01.933Z,102199.49
2019-04-28T11:21:32.020Z,102195.00
2019-04-28T11:24:02.077Z,102196.25
2019-04-28T11:26:32.937Z,102199.54
2019-04-28T11:29:03.045Z,102204.75
2019-04-28T11:31:33.101Z,102202.02
2019-04-28T11:34:22.075Z,102207.42
2019-04-28T11:36:52.132Z,102203.22
2019-04-28T11:39:29.162Z,102209.54
2019-04-28T11:41:59.286Z,102212.57
2019-04-28T11:44:29.319Z,102204.69
2019-04-28T11:47:00.329Z,102207.88
2019-04-28T11:49:30.357Z,102203.22
2019-04-28T11:52:00.409Z,102194.30
2019-04-28T11:54:30.453Z,102208.20
2019-04-28T11:57:00.492Z,102198.59
2019-04-28T11:59:30.516Z,102209.89
2019-04-28T12:02:00.557Z,102205.20
2019-04-28T12:04:30.566Z,102212.14
2019-04-28T12:07:00.638Z,102210.81
2019-04-28T12:09:38.302Z,102205.41
2019-04-28T12:12:14.299Z,102215.56
2019-04-28T12:14:49.625Z,102211.00
2019-04-28T12:17:31.710Z,102210.51
2019-04-28T12:20:09.216Z,102216.11
2019-04-28T12:22:39.273Z,102217.67
2019-04-28T12:25:09.366Z,102206.86
2019-04-28T12:27:39.402Z,102213.05
2019-04-28T12:30:09.429Z,102216.11
2019-04-28T12:32:39.473Z,102214.03
2019-04-28T12:35:09.501Z,102220.22
2019-04-28T12:37:39.632Z,102211.42
2019-04-28T12:40:09.668Z,102211.00
2019-04-28T12:42:39.782Z,102216.70
2019-04-28T12:45:09.847Z,102217.93
2019-04-28T12:47:39.873Z,102217.50
2019-04-28T12:50:19.054Z,102217.92
2019-04-28T12:52:49.075Z,102207.79
2019-04-28T12:55:19.127Z,102224.23
2019-04-28T12:57:49.157Z,102220.17
2019-04-28T13:00:32.961Z,102220.55
2019-04-28T13:03:15.484Z,102217.52
2019-04-28T13:05:46.101Z,102211.81
2019-04-28T13:08:16.118Z,102208.17
2019-04-28T13:10:46.169Z,102218.95
2019-04-28T13:13:16.219Z,102216.48
2019-04-28T13:15:46.261Z,102221.80
2019-04-28T13:18:16.314Z,102224.80
2019-04-28T13:20:46.354Z,102225.52
2019-04-28T13:23:16.397Z,102220.89
2019-04-28T13:25:46.429Z,102230.98
2019-04-28T13:28:16.478Z,102221.08
2019-04-28T13:30:46.506Z,102224.18
2019-04-28T13:33:16.538Z,102224.54
2019-04-28T13:35:46.569Z,102220.60
2019-04-28T13:38:16.585Z,102225.38
2019-04-28T13:40:46.661Z,102230.31
2019-04-28T13:43:16.678Z,102235.39
2019-04-28T13:45:46.741Z,102227.02
2019-04-28T13:48:16.767Z,102231.14
2019-04-28T13:50:48.964Z,102228.30
2019-04-28T13:53:18.520Z,102225.81
2019-04-28T13:56:07.551Z,102234.06
2019-04-28T13:58:42.470Z,102222.66
2019-04-28T14:01:30.023Z,102220.97
2019-04-28T14:04:18.993Z,102220.00
2019-04-28T14:06:51.670Z,102220.48
2019-04-28T14:09:21.703Z,102222.31
2019-04-28T14:11:51.736Z,102220.59
2019-04-28T14:14:21.768Z,102221.08
2019-04-28T14:16:52.780Z,102214.41
2019-04-28T14:19:22.919Z,102218.97
2019-04-28T14:21:52.955Z,102211.31
2019-04-28T14:24:23.053Z,102210.93
2019-04-28T14:26:53.046Z,102205.67
2019-04-28T14:29:23.135Z,102209.78
2019-04-28T14:31:54.074Z,102207.50
2019-04-28T14:34:24.136Z,102216.17
2019-04-28T14:36:54.229Z,102205.48
2019-04-28T14:39:24.281Z,102208.16
2019-04-28T14:41:54.498Z,102210.40
2019-04-28T14:44:24.714Z,102206.39
2019-04-28T14:46:54.782Z,102209.49
2019-04-28T14:49:24.829Z,102204.03
2019-04-28T14:51:54.846Z,102206.56
2019-04-28T14:54:24.926Z,102202.20
2019-04-28T14:56:54.981Z,102203.44
2019-04-28T14:59:25.097Z,102214.77
2019-04-28T15:02:20.113Z,102203.80
2019-04-28T15:05:11.916Z,102209.13
2019-04-28T15:07:57.936Z,102208.83
2019-04-28T15:10:46.772Z,102209.68
2019-04-28T15:13:17.672Z,102203.23
2019-04-28T15:15:47.735Z,102204.08
2019-04-28T15:18:17.740Z,102202.69
2019-04-28T15:20:47.791Z,102209.78
2019-04-28T15:23:17.838Z,102208.09
2019-04-28T15:25:47.879Z,102209.06
2019-04-28T15:28:17.899Z,102208.34
2019-04-28T15:30:47.945Z,102207.93
2019-04-28T15:33:17.960Z,102208.29
2019-04-28T15:35:48.010Z,102205.42
2019-04-28T15:38:18.066Z,102209.49
2019-04-28T15:40:48.125Z,102204.89
2019-04-28T15:43:18.257Z,102206.63
2019-04-28T15:45:48.293Z,102209.80
2019-04-28T15:48:18.342Z,102208.05
2019-04-28T15:50:48.370Z,102214.95
2019-04-28T15:53:18.490Z,102208.22
2019-04-28T15:55:55.498Z,102209.25
2019-04-28T15:58:50.498Z,102207.20
2019-04-28T16:01:20.541Z,102202.47
2019-04-28T16:03:50.561Z,102207.13
2019-04-28T16:06:20.602Z,102213.20
2019-04-28T16:08:50.645Z,102213.62
2019-04-28T16:11:20.681Z,102207.30
2019-04-28T16:13:50.734Z,102217.48
2019-04-28T16:16:20.907Z,102217.77
2019-04-28T16:18:50.902Z,102218.74
2019-04-28T16:21:21.009Z,102215.22
2019-04-28T16:23:51.054Z,102214.73
2019-04-28T16:26:22.934Z,102219.95
2019-04-28T16:28:52.820Z,102212.20
2019-04-28T16:31:22.862Z,102207.94
2019-04-28T16:33:52.898Z,102214.13
2019-04-28T16:36:22.935Z,102211.47
2019-04-28T16:38:52.993Z,102214.96
2019-04-28T16:41:29.122Z,102213.83
2019-04-28T16:44:04.343Z,102207.88
2019-04-28T16:46:34.356Z,102209.22
2019-04-28T16:49:04.401Z,102211.39
2019-04-28T16:51:34.465Z,102208.60
2019-04-28T16:54:04.480Z,102203.75
2019-04-28T16:56:46.679Z,102203.93
2019-04-28T16:59:41.529Z,102200.41
2019-04-28T17:02:20.511Z,102209.34
2019-04-28T17:04:50.610Z,102205.58
2019-04-28T17:07:20.640Z,102206.14
2019-04-28T17:09:50.771Z,102206.12
2019-04-28T17:12:20.775Z,102204.77
2019-04-28T17:14:50.804Z,102213.69
2019-04-28T17:17:20.872Z,102208.72
2019-04-28T17:19:51.818Z,102203.13
2019-04-28T17:22:21.875Z,102205.07
2019-04-28T17:24:52.224Z,102211.31
2019-04-28T17:27:22.270Z,102212.59
2019-04-28T17:29:52.474Z,102206.17
2019-04-28T17:32:22.584Z,102207.07
2019-04-28T17:34:53.595Z,102205.63
2019-04-28T17:37:23.707Z,102212.14
2019-04-28T17:39:53.719Z,102211.56
2019-04-28T17:42:23.778Z,102205.73
2019-04-28T17:44:54.921Z,102211.31
2019-04-28T17:47:25.167Z,102207.92
2019-04-28T17:49:55.208Z,102206.30
2019-04-28T17:52:25.426Z,102213.26
2019-04-28T17:54:55.520Z,102210.23
2019-04-28T17:57:25.542Z,102217.97
2019-04-28T17:59:57.427Z,102218.12
2019-04-28T18:02:55.453Z,102211.78
2019-04-28T18:05:33.292Z,102207.59
2019-04-28T18:08:04.384Z,102209.95
2019-04-28T18:10:34.433Z,102214.27
2019-04-28T18:13:05.421Z,102214.09
2019-04-28T18:15:51.017Z,102210.83
2019-04-28T18:18:42.199Z,102217.06
2019-04-28T18:21:12.253Z,102202.69
2019-04-28T18:23:42.355Z,102212.10
2019-04-28T18:26:13.473Z,102216.86
2019-04-28T18:28:43.501Z,102225.45
2019-04-28T18:31:41.680Z,102211.89
2019-04-28T18:34:31.482Z,102209.23
2019-04-28T18:37:20.542Z,102219.38
2019-04-28T18:40:21.532Z,102221.89
2019-04-28T18:43:00.338Z,102218.09
2019-04-28T18:45:30.564Z,102215.96
2019-04-28T18:48:00.664Z,102215.96
2019-04-28T18:50:30.794Z,102211.81
2019-04-28T18:53:00.828Z,102218.11
2019-04-28T18:55:30.935Z,102221.30
2019-04-28T18:58:01.054Z,102222.99
2019-04-28T19:00:32.742Z,102215.47
2019-04-28T19:03:02.776Z,102215.47
2019-04-28T19:05:35.429Z,102212.04
2019-04-28T19:08:17.337Z,102217.58
2019-04-28T19:11:18.213Z,102217.58
2019-04-28T19:13:52.286Z,102204.86
2019-04-28T19:16:41.242Z,102204.86
2019-04-28T19:19:11.901Z,102218.28
2019-04-28T19:21:44.416Z,102210.73
2019-04-28T19:24:14.531Z,102206.59
2019-04-28T19:26:44.564Z,102197.90
2019-04-28T19:29:14.619Z,102204.69
2019-04-28T19:31:44.746Z,102202.38
2019-04-28T19:34:15.745Z,102209.41
2019-04-28T19:36:45.816Z,102208.92
2019-04-28T19:39:15.854Z,102206.25
2019-04-28T19:41:47.496Z,102218.28
2019-04-28T19:44:17.610Z,102212.64
2019-04-28T19:46:47.722Z,102223.19
2019-04-28T19:49:17.882Z,102217.16
2019-04-28T19:51:47.877Z,102217.16
2019-04-28T19:54:20.310Z,102222.36
2019-04-28T19:57:04.081Z,102227.69
2019-04-28T19:59:53.148Z,102221.73
2019-04-28T20:02:23.869Z,102230.01
2019-04-28T20:04:53.916Z,102238.72
2019-04-28T20:07:23.948Z,102238.72
2019-04-28T20:09:55.065Z,102246.61
2019-04-28T20:12:25.102Z,102241.27
2019-04-28T20:14:55.159Z,102250.25
2019-04-28T20:17:26.187Z,102246.60
2019-04-28T20:19:56.254Z,102252.55
2019-04-28T20:22:26.302Z,102251.10
2019-04-28T20:24:56.400Z,102266.45
2019-04-28T20:27:26.529Z,102266.45
2019-04-28T20:29:56.582Z,102255.45
2019-04-28T20:32:26.625Z,102251.69
2019-04-28T20:34:56.674Z,102256.05
2019-04-28T20:37:34.402Z,102251.80
2019-04-28T20:40:09.315Z,102257.02
2019-04-28T20:42:46.181Z,102258.09
2019-04-28T20:45:16.927Z,102265.11
2019-04-28T20:47:46.989Z,102262.09
2019-04-28T20:50:17.030Z,102260.02
2019-04-28T20:52:47.103Z,102266.78
2019-04-28T20:55:17.139Z,102277.30
2019-04-28T20:57:47.187Z,102272.35
2019-04-28T21:00:17.219Z,102267.87
2019-04-28T21:02:48.926Z,102271.98
2019-04-28T21:05:18.959Z,102275.97
2019-04-28T21:07:48.980Z,102281.99
2019-04-28T21:10:19.030Z,102283.09
2019-04-28T21:12:49.065Z,102276.08
2019-04-28T21:15:19.139Z,102278.41
2019-04-28T21:17:49.183Z,102279.86
2019-04-28T21:20:19.238Z,102282.62
2019-04-28T21:22:49.300Z,102285.06
2019-04-28T21:25:19.333Z,102289.91
2019-04-28T21:27:49.381Z,102291.34
2019-04-28T21:30:19.421Z,102288.02
2019-04-28T21:32:49.464Z,102286.05
2019-04-28T21:35:19.512Z,102289.66
2019-04-28T21:37:49.582Z,102298.49
2019-04-28T21:40:19.910Z,102298.27
2019-04-28T21:43:18.007Z,102299.59
2019-04-28T21:46:09.810Z,102297.80
2019-04-28T21:48:44.843Z,102295.80
2019-04-28T21:51:14.927Z,102290.98
2019-04-28T21:53:44.979Z,102291.34
2019-04-28T21:56:15.141Z,102293.67
2019-04-28T21:58:45.201Z,102284.59
2019-04-28T22:01:17.173Z,102285.21
2019-04-28T22:03:48.054Z,102277.22
2019-04-28T22:06:18.180Z,102282.06
2019-04-28T22:08:48.220Z,102283.65
2019-04-28T22:11:18.384Z,102278.18
2019-04-28T22:13:48.400Z,102284.13
2019-04-28T22:16:18.463Z,102284.83
2019-04-28T22:18:48.562Z,102287.13
2019-04-28T22:21:18.639Z,102285.33
2019-04-28T22:24:13.415Z,102297.87
2019-04-28T22:26:44.704Z,102298.59
2019-04-28T22:29:14.746Z,102302.94
2019-04-28T22:31:45.292Z,102304.16
2019-04-28T22:34:15.343Z,102306.56
2019-04-28T22:36:45.877Z,102308.26
2019-04-28T22:39:16.897Z,102305.34
2019-04-28T22:41:46.966Z,102307.41
2019-04-28T22:44:16.997Z,102300.91
2019-04-28T22:46:47.153Z,102308.30
2019-04-28T22:49:17.177Z,102308.05
2019-04-28T22:51:47.225Z,102309.49
2019-04-28T22:54:30.569Z,102313.99
2019-04-28T22:57:10.548Z,102315.39
2019-04-28T22:59:42.609Z,102315.50
2019-04-28T23:02:14.964Z,102322.41
2019-04-28T23:04:51.231Z,102324.34
2019-04-28T23:07:21.361Z,102327.73
2019-04-28T23:09:51.397Z,102319.75
2019-04-28T23:12:21.545Z,102321.08
2019-04-28T23:14:51.605Z,102302.13
2019-04-28T23:17:22.005Z,102302.13
2019-04-28T23:19:52.044Z,102316.88
2019-04-28T23:22:46.689Z,102306.72
2019-04-28T23:25:08.934Z,102305.76
2019-04-28T23:27:38.969Z,102309.27
2019-04-28T23:30:09.185Z,102306.98
2019-04-28T23:32:39.219Z,102302.02
2019-04-28T23:35:09.287Z,102298.63
2019-04-28T23:37:39.375Z,102301.39
2019-04-28T23:40:09.447Z,102301.39
2019-04-28T23:42:44.422Z,102296.08
2019-04-28T23:45:14.503Z,102307.90
2019-04-28T23:47:44.505Z,102300.91
2019-04-28T23:50:16.190Z,102301.39
2019-04-28T23:53:00.338Z,102299.59
2019-04-28T23:55:30.431Z,102297.16
2019-04-28T23:58:00.463Z,102300.92
